Ana Sayfa
METAR-TAF:

METAR-TAF

Havaalanları :

Plainview, Teksas, Amerika Birleşik Devletleri

Enlem: 34-10-05N, Boylam: 101-43-02W, yükseklik: 1028 m

Güncel hava durumu gözlemi

Rapor saat 14:35 UTC de 23 dakika önce yapıldı.
Sakin rüzgar
Sıcaklık 0°C
Nem 69%
Basınç 1027 hPa
Görüş mesafesi: 16.1 km
Açık gökyüzü

METAR: KPVW 281435Z AUTO 00000KT 10SM CLR 00/M05 A3034 RMK AO2 T10021054

Saat: 08:58 (14:58 UTC)

Tahmin

Rapor saat 11:20 UTC de 3 saat ve 38 dakika önce yapıldı.
Ayın 28'si saat 12 UTC'den ayın 29'si saat 12 UTC'ye kadar geçerli Tahmin
Rüzgar değişken yönden 5 kt
Görüş mesafesi: 10 km
Açık gökyüzü

TAF: KPVW 281120Z 2812/2912 VRB05KT P6SM SKC

4.000'den fazla havaalanı için hava durumu gözlemleri ve tahminleri (METAR ve TAF raporları).

Kullanılabilir istasyonlar harita üzerinde sarı ve kırmızı noktalarla gösterilir.

İstasyonun adını görmek için fareyi noktanın üzerinde gezdirin.

Sonrasında hava gözlem ve tahminlerini görmek için tıklayın.

Haritayı değiştirmek için: yaklaştırmak için siyah artı işaretli yeşil düğmeye ve uzaklaştırmak için de eksi işaretli düğmeye hızla tıklayın; bitişik haritalar için yeşil okları kullanın.


METAR-TAF: